Time;durP1;ratioP1;P1;durP2;ratioP2;P2;SDS_P1;SDS_P2;PMS_P1;PMS_P2;Temp;Humidity;BMP_temperature;BMP_pressure;BME280_temperature;BME280_humidity;BME280_pressure;Samples;Min_cycle;Max_cycle;Signal;HPM_P1;HPM_P2
2021/07/30 00:01:53;;;;;;;12.75;7.05;;;15.60;99.90;;;;;;5067051;28;25146;-67
2021/07/30 00:04:19;;;;;;;21.35;8.30;;;15.50;99.90;;;;;;5066317;28;25063;-66
2021/07/30 00:06:44;;;;;;;14.25;6.95;;;15.40;99.90;;;;;;5049405;28;25199;-66
2021/07/30 00:09:11;;;;;;;13.77;6.75;;;15.50;99.90;;;;;;5074995;28;25076;-66
2021/07/30 00:11:38;;;;;;;13.05;6.80;;;15.60;99.90;;;;;;5065611;28;25071;-66
2021/07/30 00:14:03;;;;;;;16.27;7.40;;;15.50;99.90;;;;;;5065870;28;25068;-67
2021/07/30 00:16:29;;;;;;;14.20;6.53;;;15.50;99.90;;;;;;5047976;28;25101;-65
2021/07/30 00:18:54;;;;;;;11.23;6.07;;;15.50;99.90;;;;;;5056116;28;25062;-67
2021/07/30 00:21:20;;;;;;;10.30;6.40;;;15.50;99.90;;;;;;5061072;28;25103;-66
2021/07/30 00:23:46;;;;;;;17.63;7.10;;;15.60;99.90;;;;;;5056028;28;25080;-67
2021/07/30 00:26:11;;;;;;;15.93;6.85;;;15.50;99.90;;;;;;5065280;28;25079;-66
2021/07/30 00:28:37;;;;;;;15.23;7.75;;;15.50;99.90;;;;;;5061360;28;24997;-67
2021/07/30 00:31:02;;;;;;;11.40;6.20;;;15.60;99.90;;;;;;5062795;28;25101;-66
2021/07/30 00:33:28;;;;;;;16.98;7.47;;;15.50;99.90;;;;;;5073041;28;25068;-67
2021/07/30 00:35:55;;;;;;;17.35;7.47;;;15.50;99.90;;;;;;5068815;28;25073;-67
2021/07/30 00:38:20;;;;;;;13.30;6.43;;;15.60;99.90;;;;;;5064116;28;25124;-66
2021/07/30 00:40:46;;;;;;;17.25;7.22;;;15.50;99.90;;;;;;5076882;28;25098;-68
2021/07/30 00:43:12;;;;;;;14.02;7.55;;;15.40;99.90;;;;;;5067451;28;25089;-66
2021/07/30 00:45:38;;;;;;;13.30;7.80;;;15.40;99.90;;;;;;5066332;28;25071;-65
2021/07/30 00:48:04;;;;;;;10.68;6.65;;;15.40;99.90;;;;;;5068707;28;25071;-66
2021/07/30 00:50:30;;;;;;;16.75;7.05;;;15.40;99.90;;;;;;5080047;28;25074;-67
2021/07/30 00:52:56;;;;;;;12.00;6.57;;;15.50;99.90;;;;;;5057106;28;25114;-67
2021/07/30 00:55:23;;;;;;;12.75;6.97;;;15.40;99.90;;;;;;5067876;28;25073;-66
2021/07/30 00:57:48;;;;;;;13.50;7.32;;;15.40;99.90;;;;;;5057404;28;25070;-67
2021/07/30 01:00:15;;;;;;;12.95;6.53;;;15.30;99.90;;;;;;5060126;28;25079;-67
2021/07/30 01:02:40;;;;;;;16.45;7.28;;;15.30;99.90;;;;;;5057023;28;25085;-67
2021/07/30 01:05:07;;;;;;;16.17;6.70;;;15.40;99.90;;;;;;5067479;28;25081;-67
2021/07/30 01:07:32;;;;;;;16.27;6.57;;;15.40;99.90;;;;;;5063539;28;25145;-66
2021/07/30 01:09:59;;;;;;;14.43;6.30;;;15.40;99.90;;;;;;5064992;28;25076;-65
2021/07/30 01:12:25;;;;;;;13.23;6.55;;;15.40;99.90;;;;;;5074189;28;25104;-66
2021/07/30 01:14:53;;;;;;;14.80;7.57;;;15.40;99.90;;;;;;5064823;28;25104;-65
2021/07/30 01:17:19;;;;;;;17.95;7.25;;;15.30;99.90;;;;;;5065533;28;25141;-67
2021/07/30 01:19:44;;;;;;;17.77;6.07;;;15.30;99.90;;;;;;5058824;28;25062;-67
2021/07/30 01:22:30;;;;;;;12.52;6.57;;;15.30;99.90;;;;;;5065806;28;25070;-67
2021/07/30 01:24:56;;;;;;;13.60;6.78;;;15.30;99.90;;;;;;5052748;28;25063;-66
2021/07/30 01:27:22;;;;;;;11.55;6.88;;;15.20;99.90;;;;;;5066748;28;25106;-67
2021/07/30 01:29:48;;;;;;;15.38;7.43;;;15.30;99.90;;;;;;5051758;28;25072;-67
2021/07/30 01:32:15;;;;;;;18.35;7.30;;;15.20;99.90;;;;;;5062824;28;25132;-66
2021/07/30 01:34:42;;;;;;;24.48;7.95;;;15.20;99.90;;;;;;5060509;28;25103;-67
2021/07/30 01:37:09;;;;;;;14.60;7.25;;;15.20;99.90;;;;;;5060735;28;25068;-67
2021/07/30 01:39:35;;;;;;;15.52;7.38;;;15.20;99.90;;;;;;5071482;28;25080;-66
2021/07/30 01:42:00;;;;;;;17.98;8.10;;;15.00;99.90;;;;;;5065417;28;25088;-66
2021/07/30 01:44:26;;;;;;;15.07;7.18;;;15.10;99.90;;;;;;5057405;28;25062;-66
2021/07/30 01:46:51;;;;;;;15.20;7.30;;;15.20;99.90;;;;;;5064684;28;25073;-66
2021/07/30 01:49:17;;;;;;;14.35;7.63;;;15.30;99.90;;;;;;5058389;28;25144;-66
2021/07/30 01:51:42;;;;;;;11.40;7.45;;;15.30;99.90;;;;;;5051099;28;25089;-66
2021/07/30 01:54:08;;;;;;;12.10;7.70;;;15.30;99.90;;;;;;5063785;28;25143;-67
2021/07/30 01:56:34;;;;;;;24.75;8.07;;;15.20;99.90;;;;;;5066625;28;25080;-68
2021/07/30 01:59:00;;;;;;;18.52;7.55;;;15.10;99.90;;;;;;5063371;28;25067;-68
2021/07/30 02:01:25;;;;;;;18.77;8.48;;;15.10;99.90;;;;;;5064142;28;25098;-67
2021/07/30 02:03:51;;;;;;;15.75;7.45;;;15.00;99.90;;;;;;5070481;28;25129;-68
2021/07/30 02:06:17;;;;;;;11.52;7.35;;;15.00;99.90;;;;;;5069491;28;25143;-67
2021/07/30 02:08:43;;;;;;;14.43;7.25;;;14.90;99.90;;;;;;5061259;28;25085;-66
2021/07/30 02:11:12;;;;;;;19.35;8.00;;;14.90;99.90;;;;;;5067506;28;25070;-66
2021/07/30 02:16:24;;;;;;;23.13;8.05;;;14.80;99.90;;;;;;5065707;28;25097;-67
2021/07/30 02:18:49;;;;;;;12.65;6.90;;;14.80;99.90;;;;;;5068400;28;25133;-66
2021/07/30 02:21:15;;;;;;;15.27;8.00;;;14.70;99.90;;;;;;5066195;28;25059;-64
2021/07/30 02:23:42;;;;;;;30.63;8.00;;;14.70;99.90;;;;;;5056614;28;25052;-65
2021/07/30 02:26:08;;;;;;;16.27;7.07;;;14.70;99.90;;;;;;5062173;28;25053;-66
2021/07/30 02:28:34;;;;;;;17.98;7.28;;;14.70;99.90;;;;;;5061972;28;25055;-66
2021/07/30 02:30:59;;;;;;;15.68;7.75;;;14.70;99.90;;;;;;5066490;28;25074;-65
2021/07/30 02:33:25;;;;;;;12.60;7.13;;;14.70;99.90;;;;;;5070022;28;25083;-65
2021/07/30 02:35:50;;;;;;;18.35;7.40;;;14.70;99.90;;;;;;5067079;28;25093;-66
2021/07/30 02:38:16;;;;;;;17.58;6.90;;;14.80;99.90;;;;;;5066791;28;25080;-65
2021/07/30 02:40:41;;;;;;;15.00;7.95;;;14.80;99.90;;;;;;5078374;28;25139;-65
2021/07/30 02:43:07;;;;;;;20.52;6.97;;;14.80;99.90;;;;;;5069277;28;25098;-65
2021/07/30 02:45:32;;;;;;;20.23;7.80;;;14.80;99.90;;;;;;5053990;28;25136;-67
2021/07/30 02:47:58;;;;;;;22.95;8.23;;;14.80;99.90;;;;;;5064926;28;25203;-65
2021/07/30 02:50:24;;;;;;;15.32;7.65;;;14.90;99.90;;;;;;5064596;28;25170;-66
2021/07/30 02:52:49;;;;;;;16.73;7.40;;;14.90;99.90;;;;;;5064996;28;25133;-66
2021/07/30 02:55:15;;;;;;;10.73;7.13;;;14.80;99.90;;;;;;5068748;28;25091;-66
2021/07/30 02:57:40;;;;;;;17.85;7.63;;;14.90;99.90;;;;;;5061524;28;25093;-67
2021/07/30 03:00:06;;;;;;;15.63;7.75;;;14.90;99.90;;;;;;5061141;28;25066;-67
2021/07/30 03:02:32;;;;;;;22.90;8.70;;;14.90;99.90;;;;;;5062864;28;25081;-66
2021/07/30 03:04:57;;;;;;;19.33;8.35;;;14.90;99.90;;;;;;5049599;28;25052;-67
2021/07/30 03:07:23;;;;;;;22.65;7.97;;;14.90;99.90;;;;;;5056297;28;25107;-66
2021/07/30 03:09:48;;;;;;;16.83;7.80;;;14.90;99.90;;;;;;5052427;28;25075;-66
2021/07/30 03:12:14;;;;;;;22.50;9.15;;;14.90;99.90;;;;;;5068318;28;25126;-65
2021/07/30 03:14:39;;;;;;;17.42;8.35;;;14.90;99.90;;;;;;5059530;28;25060;-66
2021/07/30 03:17:06;;;;;;;22.33;8.63;;;14.90;99.90;;;;;;5059916;28;25095;-67
2021/07/30 03:19:32;;;;;;;18.73;7.65;;;15.00;99.90;;;;;;5070732;28;25077;-66
2021/07/30 03:21:59;;;;;;;15.10;8.18;;;15.00;99.90;;;;;;5067712;28;25076;-67
2021/07/30 03:24:24;;;;;;;23.17;8.63;;;15.10;99.90;;;;;;5058283;28;25101;-67
2021/07/30 03:26:50;;;;;;;19.00;8.60;;;15.10;99.90;;;;;;5067040;28;25092;-67
2021/07/30 03:29:15;;;;;;;29.42;8.82;;;15.10;99.90;;;;;;5069363;28;25069;-65
2021/07/30 03:31:41;;;;;;;14.02;7.82;;;15.10;99.90;;;;;;5065530;28;25122;-65
2021/07/30 03:34:07;;;;;;;19.75;9.30;;;15.10;99.90;;;;;;5068504;28;25069;-66
2021/07/30 03:36:32;;;;;;;24.48;8.52;;;15.10;99.90;;;;;;5067796;28;25079;-67
2021/07/30 03:38:58;;;;;;;16.00;8.75;;;15.00;99.90;;;;;;5057106;28;25083;-67
2021/07/30 03:41:24;;;;;;;15.82;7.88;;;15.00;99.90;;;;;;5076486;28;25068;-66
2021/07/30 03:43:49;;;;;;;27.35;8.95;;;15.00;99.90;;;;;;5068467;28;25069;-66
2021/07/30 03:46:15;;;;;;;21.13;8.55;;;14.90;99.90;;;;;;5061817;28;25076;-66
2021/07/30 03:48:40;;;;;;;19.23;8.25;;;15.00;99.90;;;;;;5070113;28;25137;-66
2021/07/30 03:51:06;;;;;;;20.05;9.23;;;15.00;99.90;;;;;;5080356;28;25071;-67
2021/07/30 03:53:32;;;;;;;16.27;8.02;;;15.00;99.90;;;;;;5063908;28;25060;-67
2021/07/30 03:55:57;;;;;;;22.30;8.63;;;15.00;99.90;;;;;;5063140;28;25130;-68
2021/07/30 03:58:23;;;;;;;16.50;7.90;;;15.00;99.90;;;;;;5058197;28;25078;-66
2021/07/30 04:00:48;;;;;;;24.27;9.07;;;14.90;99.90;;;;;;5062054;28;25088;-65
2021/07/30 04:03:14;;;;;;;15.27;8.15;;;14.90;99.90;;;;;;5052151;28;25086;-66
2021/07/30 04:05:39;;;;;;;20.88;8.07;;;14.90;99.90;;;;;;5051420;28;25068;-66
2021/07/30 04:08:06;;;;;;;18.92;8.68;;;14.90;99.90;;;;;;5059217;28;25153;-65
2021/07/30 04:10:32;;;;;;;13.93;7.53;;;14.90;99.90;;;;;;5054606;28;25081;-66
2021/07/30 04:12:58;;;;;;;23.67;8.77;;;15.00;99.90;;;;;;5048140;28;25083;-66
2021/07/30 04:15:24;;;;;;;18.42;9.18;;;15.10;99.90;;;;;;5048378;28;25068;-66
2021/07/30 04:17:50;;;;;;;16.63;9.05;;;15.20;99.90;;;;;;5063331;28;25066;-66
2021/07/30 04:20:16;;;;;;;19.50;8.02;;;15.10;99.90;;;;;;5064058;28;25055;-66
2021/07/30 04:22:41;;;;;;;17.42;8.93;;;15.20;99.90;;;;;;5067250;28;25063;-66
2021/07/30 04:25:08;;;;;;;22.75;9.05;;;15.20;99.90;;;;;;5067212;28;25074;-65
2021/07/30 04:27:33;;;;;;;21.20;8.57;;;15.30;99.90;;;;;;5051253;28;25081;-65
2021/07/30 04:29:59;;;;;;;13.88;7.65;;;15.30;99.90;;;;;;5066266;28;25071;-66
2021/07/30 04:32:25;;;;;;;18.02;9.32;;;15.30;99.90;;;;;;5066531;28;25070;-66
2021/07/30 04:34:50;;;;;;;18.83;8.45;;;15.30;99.90;;;;;;5061929;28;25078;-65
2021/07/30 04:37:16;;;;;;;15.90;8.70;;;15.30;99.90;;;;;;5064927;28;25134;-65
2021/07/30 04:39:42;;;;;;;16.20;8.50;;;15.20;99.90;;;;;;5066124;28;25124;-66
2021/07/30 04:42:07;;;;;;;15.25;8.68;;;15.20;99.90;;;;;;5081881;28;25078;-67
2021/07/30 04:44:34;;;;;;;22.75;8.05;;;15.10;99.90;;;;;;5073267;28;25061;-66
2021/07/30 04:46:59;;;;;;;19.38;8.43;;;15.10;99.90;;;;;;5086662;28;25180;-66
2021/07/30 04:49:25;;;;;;;20.27;7.90;;;15.00;99.90;;;;;;5067004;28;25074;-64
2021/07/30 04:51:51;;;;;;;15.48;8.50;;;15.10;99.90;;;;;;5059689;28;25078;-66
2021/07/30 04:54:16;;;;;;;20.83;7.70;;;15.00;99.90;;;;;;5059053;28;25064;-66
2021/07/30 04:56:42;;;;;;;18.75;9.07;;;15.00;99.90;;;;;;5051609;28;25057;-67
2021/07/30 04:59:07;;;;;;;17.83;8.32;;;15.10;99.90;;;;;;5053663;28;25071;-66
2021/07/30 05:01:40;;;;;;;17.70;7.93;;;15.20;99.90;;;;;;5057867;28;25072;-66
2021/07/30 05:04:06;;;;;;;11.40;7.03;;;15.20;99.90;;;;;;5055956;28;25145;-67
2021/07/30 05:06:32;;;;;;;18.73;7.35;;;15.40;99.90;;;;;;5053839;28;25072;-67
2021/07/30 05:08:57;;;;;;;16.50;7.68;;;15.40;99.90;;;;;;5057533;28;25069;-65
2021/07/30 05:11:23;;;;;;;25.42;8.10;;;15.40;99.90;;;;;;5054256;28;25083;-65
2021/07/30 05:13:48;;;;;;;13.20;8.43;;;15.30;99.90;;;;;;5062476;28;25072;-65
2021/07/30 05:16:14;;;;;;;11.77;6.32;;;15.40;99.90;;;;;;5066259;28;25099;-68
2021/07/30 05:18:40;;;;;;;13.88;8.23;;;15.40;99.90;;;;;;5063759;28;25111;-66
2021/07/30 05:21:06;;;;;;;13.75;6.95;;;15.50;99.90;;;;;;5063106;28;25052;-66
2021/07/30 05:23:33;;;;;;;14.73;7.53;;;15.60;99.90;;;;;;5065155;28;25067;-65
2021/07/30 05:25:59;;;;;;;13.77;8.00;;;15.60;99.90;;;;;;5057631;28;25144;-66
2021/07/30 05:28:25;;;;;;;18.52;7.63;;;15.60;99.90;;;;;;5053222;28;25105;-65
2021/07/30 05:30:51;;;;;;;14.48;7.47;;;15.70;99.90;;;;;;5052152;28;25092;-67
2021/07/30 05:33:17;;;;;;;15.68;7.85;;;15.80;99.90;;;;;;5055313;28;25045;-68
2021/07/30 05:35:42;;;;;;;18.45;7.95;;;15.80;99.90;;;;;;5063580;28;25056;-68
2021/07/30 05:38:08;;;;;;;16.83;7.53;;;15.90;99.90;;;;;;5065252;28;25141;-67
2021/07/30 05:40:33;;;;;;;12.07;6.95;;;15.90;99.90;;;;;;5061353;28;25086;-66
2021/07/30 05:42:59;;;;;;;16.90;7.13;;;15.90;99.90;;;;;;5056573;28;25127;-67
2021/07/30 05:45:24;;;;;;;14.75;7.78;;;15.90;99.90;;;;;;5051650;28;25128;-69
2021/07/30 05:47:50;;;;;;;17.00;7.63;;;15.90;99.90;;;;;;5054866;28;25074;-64
2021/07/30 05:50:16;;;;;;;21.55;7.60;;;16.00;99.90;;;;;;5062862;28;25065;-66
2021/07/30 05:52:42;;;;;;;13.02;6.97;;;16.10;99.90;;;;;;5066656;28;25154;-65
2021/07/30 05:55:08;;;;;;;15.63;7.20;;;16.20;99.90;;;;;;5056367;28;25094;-65
2021/07/30 05:57:34;;;;;;;15.00;7.22;;;16.10;99.90;;;;;;5067253;28;25085;-68
2021/07/30 06:00:06;;;;;;;12.35;6.80;;;16.10;99.90;;;;;;5066654;28;25056;-67
2021/07/30 06:02:31;;;;;;;21.58;8.07;;;16.20;99.90;;;;;;5065873;28;25058;-67
2021/07/30 06:04:57;;;;;;;19.83;7.45;;;16.20;99.90;;;;;;5072554;28;25051;-68
2021/07/30 06:07:22;;;;;;;17.88;7.60;;;16.30;99.90;;;;;;5062796;28;25125;-68
2021/07/30 06:09:48;;;;;;;21.17;8.13;;;16.30;99.90;;;;;;5067736;28;25146;-67
2021/07/30 06:12:13;;;;;;;19.15;7.82;;;16.40;99.90;;;;;;5069515;28;25071;-65
2021/07/30 06:14:39;;;;;;;17.05;7.03;;;16.50;99.90;;;;;;5069928;28;25072;-67
2021/07/30 06:17:04;;;;;;;14.05;7.38;;;16.60;99.90;;;;;;5072218;28;25081;-68
2021/07/30 06:19:30;;;;;;;14.57;7.53;;;16.60;99.90;;;;;;5069120;28;25069;-68
2021/07/30 06:21:57;;;;;;;16.52;7.60;;;16.70;99.90;;;;;;5070102;28;25080;-69
2021/07/30 06:24:24;;;;;;;14.68;6.90;;;16.60;99.90;;;;;;5065307;28;25053;-67
2021/07/30 06:26:49;;;;;;;19.17;7.68;;;16.80;99.90;;;;;;5070974;28;25150;-67
2021/07/30 06:29:15;;;;;;;15.88;6.93;;;16.80;99.90;;;;;;5073470;28;25096;-67
2021/07/30 06:31:41;;;;;;;12.63;6.18;;;16.80;99.90;;;;;;5070325;28;25066;-68
2021/07/30 06:34:07;;;;;;;15.90;6.80;;;16.90;99.90;;;;;;5068453;28;25058;-65
2021/07/30 06:36:33;;;;;;;16.15;7.13;;;17.00;99.90;;;;;;5075969;28;25147;-66
2021/07/30 06:38:58;;;;;;;25.88;7.45;;;16.90;99.90;;;;;;5077920;28;25077;-65
2021/07/30 06:41:24;;;;;;;14.73;7.38;;;17.10;99.90;;;;;;5069341;28;25132;-70
2021/07/30 06:43:51;;;;;;;22.00;7.28;;;17.20;99.90;;;;;;5064001;28;25134;-67
2021/07/30 06:46:16;;;;;;;14.57;7.07;;;17.10;99.90;;;;;;5064882;28;25095;-67
2021/07/30 06:48:42;;;;;;;19.73;7.90;;;17.20;99.90;;;;;;5068944;28;25128;-66
2021/07/30 06:51:14;;;;;;;14.55;7.03;;;17.10;99.90;;;;;;5073701;28;25049;-67
2021/07/30 06:53:40;;;;;;;16.48;7.07;;;17.10;99.90;;;;;;5056529;28;25087;-66
2021/07/30 06:56:13;;;;;;;18.02;7.35;;;17.10;99.90;;;;;;5053009;28;25154;-67
2021/07/30 06:58:40;;;;;;;17.33;6.93;;;17.10;99.90;;;;;;5065291;28;25057;-66
2021/07/30 07:01:06;;;;;;;16.23;6.95;;;17.20;99.90;;;;;;5053754;28;25116;-68
2021/07/30 07:03:32;;;;;;;10.88;6.60;;;17.40;99.90;;;;;;5069183;28;25086;-67
2021/07/30 07:05:58;;;;;;;19.90;8.05;;;17.60;99.90;;;;;;5059663;28;25138;-69
2021/07/30 07:08:24;;;;;;;19.02;7.53;;;17.50;99.90;;;;;;5058116;28;25069;-66
2021/07/30 07:10:50;;;;;;;17.17;7.35;;;17.50;99.90;;;;;;5058382;28;25072;-66
2021/07/30 07:13:16;;;;;;;17.02;7.43;;;17.60;99.90;;;;;;5072976;28;25077;-67
2021/07/30 07:15:43;;;;;;;11.35;7.03;;;17.60;99.90;;;;;;5068302;28;25070;-67
2021/07/30 07:18:09;;;;;;;13.48;6.70;;;17.70;99.90;;;;;;5068027;28;25064;-66
2021/07/30 07:20:34;;;;;;;18.20;7.00;;;17.80;99.90;;;;;;5067908;28;25071;-65
2021/07/30 07:23:00;;;;;;;15.05;6.80;;;17.90;99.90;;;;;;5069350;28;25102;-68
2021/07/30 07:25:25;;;;;;;18.45;7.47;;;17.90;99.90;;;;;;5055692;28;25096;-66
2021/07/30 07:27:51;;;;;;;16.20;6.32;;;18.10;99.90;;;;;;5061212;28;25087;-66
2021/07/30 07:30:16;;;;;;;14.02;6.30;;;18.30;99.90;;;;;;5069522;28;25141;-67
2021/07/30 07:32:42;;;;;;;13.48;6.65;;;18.40;99.90;;;;;;5081804;28;25088;-67
2021/07/30 07:35:08;;;;;;;16.75;6.63;;;18.40;99.90;;;;;;5077914;28;25048;-67
2021/07/30 07:37:33;;;;;;;18.67;6.60;;;18.70;99.90;;;;;;5072991;28;25076;-67
2021/07/30 07:39:59;;;;;;;14.88;7.05;;;18.90;99.90;;;;;;5071620;28;25058;-67
2021/07/30 07:42:24;;;;;;;18.88;7.07;;;19.00;99.90;;;;;;5075422;28;25068;-66
2021/07/30 07:44:50;;;;;;;14.13;6.63;;;19.10;99.90;;;;;;5068804;28;25106;-66
2021/07/30 07:47:17;;;;;;;13.35;6.03;;;19.00;99.90;;;;;;5089256;28;25062;-67
2021/07/30 07:49:42;;;;;;;15.77;6.15;;;19.10;99.90;;;;;;5076847;28;25057;-66
2021/07/30 07:52:08;;;;;;;11.52;5.40;;;19.20;99.90;;;;;;5068387;28;25078;-67
2021/07/30 07:54:33;;;;;;;19.20;6.30;;;19.30;99.90;;;;;;5069107;28;25113;-66
2021/07/30 07:57:02;;;;;;;11.80;6.00;;;19.40;99.90;;;;;;5068537;28;25102;-67
2021/07/30 07:59:28;;;;;;;19.40;6.32;;;19.40;99.90;;;;;;5078098;28;25069;-66
2021/07/30 08:01:53;;;;;;;17.00;6.60;;;19.40;99.90;;;;;;5054677;28;25078;-67
2021/07/30 08:04:19;;;;;;;11.88;5.32;;;19.30;99.90;;;;;;5068578;28;25151;-67
2021/07/30 08:06:44;;;;;;;15.15;5.40;;;19.40;99.90;;;;;;5080960;28;25521;-67
2021/07/30 08:09:10;;;;;;;10.43;4.82;;;19.20;99.90;;;;;;5069292;28;25060;-65
2021/07/30 08:11:36;;;;;;;15.45;5.30;;;19.00;99.90;;;;;;5080145;28;25090;-68
2021/07/30 08:14:02;;;;;;;17.77;5.05;;;18.90;99.90;;;;;;5070487;28;25138;-66
2021/07/30 08:16:27;;;;;;;13.18;4.82;;;19.00;99.90;;;;;;5077658;28;25086;-66
2021/07/30 08:18:53;;;;;;;9.18;5.25;;;19.10;99.90;;;;;;5074685;28;25115;-68
2021/07/30 08:21:19;;;;;;;12.52;5.32;;;19.10;99.90;;;;;;5072115;28;25057;-66
2021/07/30 08:23:44;;;;;;;7.13;4.80;;;19.20;99.90;;;;;;5069418;28;25071;-65
2021/07/30 08:26:10;;;;;;;14.18;5.35;;;19.20;99.90;;;;;;5087206;28;25135;-67
2021/07/30 08:28:37;;;;;;;13.93;5.32;;;19.20;99.90;;;;;;5077061;28;25132;-66
2021/07/30 08:31:02;;;;;;;12.65;4.72;;;19.30;99.90;;;;;;5068625;28;25075;-66
2021/07/30 08:33:28;;;;;;;13.00;4.90;;;19.60;99.90;;;;;;5078105;28;25150;-66
2021/07/30 08:35:53;;;;;;;10.77;4.85;;;19.70;99.90;;;;;;5072516;28;25065;-65
2021/07/30 08:38:19;;;;;;;7.63;3.88;;;19.80;99.90;;;;;;5068123;28;25053;-67
2021/07/30 08:40:45;;;;;;;10.25;4.00;;;19.70;99.90;;;;;;5067617;28;25065;-66
2021/07/30 08:43:16;;;;;;;9.13;3.80;;;19.70;99.90;;;;;;5080357;28;25090;-67
2021/07/30 08:45:50;;;;;;;7.95;3.50;;;19.80;99.90;;;;;;5068377;28;25069;-67
2021/07/30 08:48:16;;;;;;;9.48;4.00;;;20.00;99.90;;;;;;5049053;28;25055;-66
2021/07/30 08:50:42;;;;;;;14.52;4.15;;;20.20;99.90;;;;;;5061129;28;25068;-66
2021/07/30 08:53:11;;;;;;;8.25;3.80;;;20.20;99.90;;;;;;5061178;28;25072;-65
2021/07/30 08:55:36;;;;;;;9.65;4.45;;;20.30;99.90;;;;;;5052293;28;25083;-67
2021/07/30 08:58:02;;;;;;;6.45;3.85;;;20.20;99.90;;;;;;5056470;28;25068;-66
2021/07/30 09:00:28;;;;;;;17.63;4.15;;;20.10;99.90;;;;;;5061782;28;25078;-66
2021/07/30 09:02:55;;;;;;;6.35;3.97;;;20.00;99.90;;;;;;5047766;28;25158;-66
2021/07/30 09:05:34;;;;;;;7.75;3.90;;;19.90;99.90;;;;;;5060796;28;25072;-66
2021/07/30 09:08:02;;;;;;;7.35;3.65;;;19.90;99.90;;;;;;5056077;28;25077;-66
2021/07/30 09:10:48;;;;;;;10.38;4.50;;;19.80;99.90;;;;;;5056364;28;25129;-67
2021/07/30 09:13:32;;;;;;;6.88;3.70;;;19.90;99.90;;;;;;5062551;28;25062;-68
2021/07/30 09:16:03;;;;;;;9.38;5.03;;;20.10;99.90;;;;;;5061708;28;25081;-70
2021/07/30 09:18:32;;;;;;;5.60;3.28;;;20.30;99.90;;;;;;5076793;28;25064;-67
2021/07/30 09:21:18;;;;;;;9.85;4.45;;;20.40;99.90;;;;;;5067542;28;25152;-66
2021/07/30 09:24:06;;;;;;;11.30;4.30;;;20.50;99.90;;;;;;5077547;28;25067;-64
2021/07/30 09:26:41;;;;;;;15.80;4.82;;;20.70;99.90;;;;;;5063478;28;25194;-65
2021/07/30 09:29:11;;;;;;;8.40;4.20;;;20.70;99.90;;;;;;5070914;28;25176;-67
2021/07/30 09:31:57;;;;;;;8.43;4.25;;;20.60;99.90;;;;;;5061340;28;25109;-65
2021/07/30 09:34:27;;;;;;;7.93;3.97;;;20.70;99.90;;;;;;5068910;28;25109;-67
2021/07/30 09:36:57;;;;;;;11.23;4.40;;;20.70;99.90;;;;;;5070842;28;25069;-67
2021/07/30 09:39:35;;;;;;;8.68;4.45;;;20.70;99.90;;;;;;5052307;28;25069;-66
2021/07/30 09:42:07;;;;;;;8.18;4.05;;;20.80;99.90;;;;;;5079444;28;25156;-66
2021/07/30 09:44:48;;;;;;;10.98;4.03;;;21.00;99.90;;;;;;5082277;28;25158;-66
2021/07/30 09:47:15;;;;;;;8.05;4.03;;;21.10;99.90;;;;;;5056942;28;25071;-66
2021/07/30 09:49:46;;;;;;;9.73;3.70;;;21.30;99.90;;;;;;5057187;28;25057;-67
2021/07/30 09:52:34;;;;;;;11.88;4.75;;;21.50;99.90;;;;;;5068820;28;25116;-67
2021/07/30 09:55:13;;;;;;;9.20;3.70;;;21.60;99.90;;;;;;5083265;28;25054;-64
2021/07/30 09:57:43;;;;;;;6.53;3.25;;;21.80;99.90;;;;;;5072274;28;25088;-67
2021/07/30 10:00:12;;;;;;;6.50;3.33;;;21.90;99.90;;;;;;5081823;28;25099;-66
2021/07/30 10:02:40;;;;;;;7.70;3.72;;;21.80;99.90;;;;;;5082736;28;25101;-67
2021/07/30 10:05:10;;;;;;;3.97;3.38;;;21.60;99.90;;;;;;5088890;28;25082;-66
2021/07/30 10:07:37;;;;;;;6.10;3.97;;;21.30;99.90;;;;;;5073690;28;25106;-67
2021/07/30 10:10:08;;;;;;;7.57;3.45;;;21.30;99.90;;;;;;5100342;28;25103;-68
2021/07/30 10:12:37;;;;;;;7.50;3.75;;;21.40;99.90;;;;;;5087866;28;25074;-69
2021/07/30 10:15:05;;;;;;;7.75;3.28;;;21.40;99.90;;;;;;5088945;28;25058;-69
2021/07/30 10:17:33;;;;;;;9.68;4.13;;;21.50;99.90;;;;;;5069566;28;25077;-68
2021/07/30 10:20:10;;;;;;;6.20;3.97;;;21.50;99.90;;;;;;5069855;28;25124;-68
2021/07/30 10:22:49;;;;;;;7.45;3.55;;;21.40;99.90;;;;;;5082486;28;25075;-69
2021/07/30 10:25:35;;;;;;;6.55;3.70;;;21.40;99.90;;;;;;5078581;28;25048;-68
2021/07/30 10:28:08;;;;;;;10.48;3.42;;;21.30;99.90;;;;;;5073636;28;25073;-67
2021/07/30 10:30:56;;;;;;;6.15;3.53;;;21.30;99.90;;;;;;5087658;28;25080;-67
2021/07/30 10:33:45;;;;;;;12.13;4.07;;;21.30;99.90;;;;;;5070221;28;25112;-66
2021/07/30 10:36:13;;;;;;;9.38;3.28;;;21.30;99.90;;;;;;5062875;28;25094;-67
2021/07/30 10:38:40;;;;;;;7.32;3.58;;;21.30;99.90;;;;;;5072579;28;25048;-67
2021/07/30 10:41:08;;;;;;;6.65;4.05;;;21.40;99.90;;;;;;5071589;28;25139;-67
2021/07/30 10:43:50;;;;;;;7.00;3.65;;;21.30;99.90;;;;;;5090504;28;25069;-66
2021/07/30 10:46:18;;;;;;;6.97;3.70;;;21.40;99.90;;;;;;5079327;28;25064;-67
2021/07/30 10:48:44;;;;;;;5.97;3.30;;;21.30;99.90;;;;;;5056428;28;25081;-67
2021/07/30 10:51:19;;;;;;;7.60;3.63;;;21.40;99.90;;;;;;5071369;28;25081;-68
2021/07/30 10:53:47;;;;;;;6.80;3.95;;;21.40;99.90;;;;;;5057075;28;25084;-68
2021/07/30 10:56:22;;;;;;;6.53;3.40;;;21.40;99.90;;;;;;5063502;28;25070;-67
2021/07/30 10:58:52;;;;;;;8.07;3.50;;;21.40;99.90;;;;;;5076277;28;25064;-69
2021/07/30 11:01:23;;;;;;;4.53;3.30;;;21.40;99.90;;;;;;5092192;28;25066;-67
2021/07/30 11:03:51;;;;;;;6.30;2.83;;;21.30;99.90;;;;;;5077197;28;25056;-67
2021/07/30 11:06:21;;;;;;;8.13;3.40;;;21.30;99.90;;;;;;5082151;28;25074;-67
2021/07/30 11:08:59;;;;;;;8.25;3.38;;;21.20;99.90;;;;;;5053095;28;25161;-67
2021/07/30 11:11:51;;;;;;;3.75;3.05;;;21.20;99.90;;;;;;5081129;28;25150;-68
2021/07/30 11:14:18;;;;;;;;;;;21.20;99.90;;;;;;5090423;28;25057;-70
2021/07/30 11:16:46;;;;;;;5.43;4.47;;;21.30;99.90;;;;;;5078565;28;24062;-68
2021/07/30 11:19:14;;;;;;;7.88;3.92;;;21.30;99.90;;;;;;5069407;28;25057;-67
2021/07/30 11:21:40;;;;;;;12.93;4.13;;;21.30;99.90;;;;;;5070707;28;25069;-68
2021/07/30 11:24:07;;;;;;;4.75;3.83;;;21.20;99.90;;;;;;5068092;28;25071;-67
2021/07/30 11:26:34;;;;;;;5.60;3.80;;;21.10;99.90;;;;;;5056926;28;25157;-70
2021/07/30 11:29:13;;;;;;;5.72;3.80;;;21.00;99.90;;;;;;5056898;28;25069;-69
2021/07/30 11:31:59;;;;;;;6.65;3.63;;;21.00;99.90;;;;;;5062600;28;25083;-67
2021/07/30 11:34:31;;;;;;;11.00;3.85;;;21.00;99.90;;;;;;5066847;28;25071;-67
2021/07/30 11:36:58;;;;;;;7.85;4.03;;;21.00;99.90;;;;;;5059455;28;25056;-67
2021/07/30 11:39:31;;;;;;;9.55;4.13;;;21.00;99.90;;;;;;5065804;28;25072;-67
2021/07/30 11:41:58;;;;;;;5.07;3.80;;;21.20;99.90;;;;;;5069951;28;25060;-66
2021/07/30 11:44:23;;;;;;;17.67;3.70;;;21.30;99.90;;;;;;5068508;28;25066;-67
2021/07/30 11:46:59;;;;;;;6.00;3.13;;;21.30;99.90;;;;;;5053278;28;25101;-67
2021/07/30 11:49:30;;;;;;;8.02;3.22;;;21.40;99.90;;;;;;5070667;28;25091;-66
2021/07/30 11:51:56;;;;;;;6.03;3.40;;;21.50;99.90;;;;;;5086344;28;25064;-66
2021/07/30 11:54:26;;;;;;;3.90;3.50;;;21.50;99.90;;;;;;5059646;28;25064;-68
2021/07/30 11:56:52;;;;;;;6.05;3.67;;;21.50;99.90;;;;;;5062185;28;25124;-66
2021/07/30 11:59:18;;;;;;;6.63;4.47;;;21.40;99.90;;;;;;5051980;28;25064;-66
2021/07/30 12:01:59;;;;;;;8.13;3.38;;;21.40;99.90;;;;;;5050337;28;25061;-66
2021/07/30 12:04:25;;;;;;;10.00;3.85;;;21.50;99.90;;;;;;5058982;28;25061;-67
2021/07/30 12:06:54;;;;;;;6.68;3.78;;;21.50;99.90;;;;;;5068818;28;25072;-67
2021/07/30 12:09:20;;;;;;;8.27;3.95;;;21.60;99.90;;;;;;5055130;28;25069;-67
2021/07/30 12:11:54;;;;;;;6.28;3.35;;;21.70;99.90;;;;;;5069485;28;25055;-68
2021/07/30 12:14:25;;;;;;;8.60;3.30;;;21.70;99.90;;;;;;5055629;28;25139;-67
2021/07/30 12:16:51;;;;;;;4.38;3.33;;;21.70;99.90;;;;;;5051513;28;25110;-67
2021/07/30 12:19:31;;;;;;;5.75;3.63;;;21.80;99.90;;;;;;5039818;28;25105;-67
2021/07/30 12:22:05;;;;;;;8.77;3.72;;;22.10;99.90;;;;;;5066003;28;25120;-67
2021/07/30 12:24:32;;;;;;;8.55;3.85;;;22.30;99.90;;;;;;5070239;28;25061;-68
2021/07/30 12:27:18;;;;;;;5.15;3.17;;;22.50;99.90;;;;;;5070230;28;25129;-67
2021/07/30 12:29:46;;;;;;;6.75;3.45;;;22.50;99.90;;;;;;5051996;28;25108;-67
2021/07/30 12:32:22;;;;;;;5.05;3.40;;;22.30;99.90;;;;;;5075644;28;25159;-66
2021/07/30 12:34:59;;;;;;;3.40;3.10;;;22.20;99.90;;;;;;5065283;28;25076;-67
2021/07/30 12:37:27;;;;;;;7.65;3.65;;;22.20;99.90;;;;;;5068714;28;25160;-68
2021/07/30 12:39:55;;;;;;;10.10;4.82;;;22.00;99.90;;;;;;5071229;28;25078;-66
2021/07/30 12:42:23;;;;;;;5.38;4.55;;;21.60;99.90;;;;;;5077306;28;25135;-66
2021/07/30 12:45:07;;;;;;;8.60;5.43;;;21.40;99.90;;;;;;5068633;28;25170;-68
2021/07/30 12:47:47;;;;;;;10.40;6.53;;;20.90;99.90;;;;;;5082404;28;25076;-67